Time;durP1;ratioP1;P1;durP2;ratioP2;P2;SDS_P1;SDS_P2;PMS_P1;PMS_P2;Temp;Humidity;BMP_temperature;BMP_pressure;BME280_temperature;BME280_humidity;BME280_pressure;Samples;Min_cycle;Max_cycle;Signal;HPM_P1;HPM_P2
2023/03/10 00:05:38;;;;;;;29.80;16.60;;;;;;;17.39;52.87;97527.52;273438;1282;22392;-89
2023/03/10 00:11:42;;;;;;;27.40;16.40;;;;;;;17.46;52.82;97522.99;273139;1283;23031;-83
2023/03/10 00:17:48;;;;;;;26.90;15.80;;;;;;;17.64;52.39;97514.45;273149;1283;22450;-82
2023/03/10 00:23:51;;;;;;;30.70;17.40;;;;;;;17.46;52.88;97506.69;273176;1277;22577;-81
2023/03/10 00:29:55;;;;;;;28.90;17.60;;;;;;;17.07;53.76;97499.77;273327;1276;23062;-82
2023/03/10 00:36:07;;;;;;;27.10;16.20;;;;;;;17.07;54.09;97494.31;273277;1283;23188;-81
2023/03/10 00:42:10;;;;;;;25.90;15.60;;;;;;;17.04;53.99;97497.96;273260;1276;22597;-80
2023/03/10 00:48:16;;;;;;;27.70;15.90;;;;;;;17.18;53.42;97486.64;273212;1283;22427;-89
2023/03/10 00:54:27;;;;;;;27.50;16.30;;;;;;;17.35;52.93;97468.90;273228;1282;22906;-89
2023/03/10 01:00:30;;;;;;;28.00;15.00;;;;;;;16.94;53.47;97456.61;273227;1283;22319;-85
2023/03/10 01:06:34;;;;;;;26.80;15.70;;;;;;;17.04;53.08;97453.54;273338;1283;22121;-90
2023/03/10 01:12:37;;;;;;;26.80;16.10;;;;;;;17.02;52.88;97446.21;273285;1283;23059;-81
2023/03/10 01:18:42;;;;;;;31.00;17.20;;;;;;;17.11;53.12;97445.81;273339;1283;22119;-80
2023/03/10 01:31:42;;;;;;;22.50;13.60;;;;;;;17.04;52.94;97435.63;273879;1277;22337;-93
2023/03/10 01:38:30;;;;;;;25.20;15.10;;;;;;;16.80;53.18;97432.59;273171;1286;23079;-90
2023/03/10 01:44:33;;;;;;;26.60;15.40;;;;;;;16.64;54.29;97427.80;272929;1286;22391;-89
2023/03/10 01:50:38;;;;;;;23.80;15.00;;;;;;;16.76;53.52;97422.89;273016;1287;22118;-89
2023/03/10 01:56:52;;;;;;;26.90;16.00;;;;;;;16.58;53.28;97409.08;273072;1287;23106;-91
2023/03/10 02:03:07;;;;;;;24.10;14.20;;;;;;;16.41;53.53;97401.90;272984;1287;22157;-92
2023/03/10 02:09:11;;;;;;;23.50;14.40;;;;;;;16.17;53.34;97392.01;272939;1287;22901;-84
2023/03/10 02:15:14;;;;;;;21.70;12.20;;;;;;;16.07;53.54;97390.34;272875;1285;23181;-87
2023/03/10 02:21:38;;;;;;;23.20;13.00;;;;;;;16.28;53.39;97392.35;273136;1285;22243;-94
2023/03/10 02:28:25;;;;;;;12.70;7.60;;;;;;;16.55;53.69;97389.73;273162;1286;22123;-90
2023/03/10 02:34:29;;;;;;;9.90;5.50;;;;;;;16.83;54.01;97391.87;272784;1287;22143;-87
2023/03/10 02:40:48;;;;;;;9.00;5.30;;;;;;;17.05;54.15;97390.88;272801;1287;22159;-90
2023/03/10 02:46:54;;;;;;;5.70;3.30;;;;;;;17.04;54.51;97379.83;273094;1287;22151;-89
2023/03/10 02:53:17;;;;;;;3.90;1.80;;;;;;;16.90;55.04;97370.14;272871;1287;22382;-92
2023/03/10 02:59:28;;;;;;;2.00;1.00;;;;;;;17.22;54.64;97363.46;273000;1286;23003;-91
2023/03/10 03:05:37;;;;;;;1.50;1.00;;;;;;;17.40;54.19;97358.48;273029;1286;22197;-92
2023/03/10 03:11:41;;;;;;;1.70;0.70;;;;;;;17.51;53.94;97355.00;272844;1287;22120;-91
2023/03/10 03:17:47;;;;;;;2.20;0.80;;;;;;;17.44;54.02;97342.91;272801;1286;22468;-89
2023/03/10 03:23:50;;;;;;;1.80;0.60;;;;;;;17.50;53.97;97333.46;272833;1285;22354;-88
2023/03/10 03:29:53;;;;;;;3.40;0.80;;;;;;;17.43;54.02;97320.97;273002;1285;22485;-88
2023/03/10 03:35:57;;;;;;;2.00;0.70;;;;;;;17.75;53.42;97312.05;273060;1284;22344;-81
2023/03/10 03:42:01;;;;;;;1.80;0.70;;;;;;;17.86;53.09;97308.48;273090;1285;22668;-80
2023/03/10 03:48:12;;;;;;;2.30;0.90;;;;;;;18.01;52.82;97312.41;273074;1280;22388;-79
2023/03/10 03:54:16;;;;;;;3.10;0.80;;;;;;;18.01;52.79;97307.35;273038;1280;22963;-79
2023/03/10 04:00:21;;;;;;;2.30;0.80;;;;;;;17.95;52.81;97302.54;273106;1284;22273;-77
2023/03/10 04:06:25;;;;;;;1.70;0.80;;;;;;;17.94;52.74;97295.89;273114;1285;23206;-77
2023/03/10 04:12:28;;;;;;;1.50;0.60;;;;;;;18.13;52.31;97293.81;273030;1285;22381;-78
2023/03/10 04:18:32;;;;;;;3.50;0.70;;;;;;;18.24;51.88;97279.36;273109;1285;22348;-78
2023/03/10 04:24:39;;;;;;;3.00;0.60;;;;;;;18.19;51.80;97271.86;273077;1285;22162;-78
2023/03/10 04:30:44;;;;;;;2.20;0.70;;;;;;;18.33;51.43;97273.02;273099;1279;22132;-85
2023/03/10 04:36:52;;;;;;;2.60;0.70;;;;;;;18.14;51.61;97266.59;272978;1285;22445;-83
2023/03/10 04:42:55;;;;;;;1.90;0.70;;;;;;;17.75;52.10;97251.33;273077;1282;22175;-84
2023/03/10 04:48:58;;;;;;;2.60;0.60;;;;;;;17.68;52.21;97237.14;273025;1285;22167;-81
2023/03/10 04:55:01;;;;;;;4.30;0.80;;;;;;;17.59;52.15;97232.80;273109;1285;22495;-82
2023/03/10 05:01:09;;;;;;;2.70;1.00;;;;;;;17.57;52.15;97233.48;273099;1285;22579;-85
2023/03/10 05:07:15;;;;;;;4.20;0.80;;;;;;;17.62;52.07;97231.81;273071;1285;23114;-85
2023/03/10 05:13:23;;;;;;;3.00;1.00;;;;;;;17.49;51.96;97224.58;273075;1285;23083;-85
2023/03/10 05:19:28;;;;;;;2.40;0.80;;;;;;;17.44;52.15;97225.48;273107;1285;22190;-84
2023/03/10 05:25:35;;;;;;;1.70;0.80;;;;;;;17.51;51.85;97228.18;273041;1285;22423;-86
2023/03/10 05:31:38;;;;;;;1.20;0.60;;;;;;;17.53;51.77;97212.81;273049;1285;22111;-86
2023/03/10 05:37:48;;;;;;;3.20;0.70;;;;;;;17.46;52.09;97208.70;273084;1285;23180;-90
2023/03/10 05:44:00;;;;;;;2.90;0.90;;;;;;;17.69;51.81;97206.98;273072;1285;22387;-88
2023/03/10 05:50:06;;;;;;;2.20;0.90;;;;;;;17.99;51.43;97204.65;272924;1285;22282;-80
2023/03/10 05:56:12;;;;;;;2.10;0.70;;;;;;;18.14;51.11;97193.22;272924;1285;23090;-81
2023/03/10 06:02:17;;;;;;;2.30;1.10;;;;;;;18.19;51.03;97185.34;273088;1284;22402;-91
2023/03/10 06:08:20;;;;;;;2.90;1.20;;;;;;;18.19;50.99;97173.40;273002;1285;22197;-82
2023/03/10 06:14:24;;;;;;;3.40;1.50;;;;;;;18.19;51.13;97168.09;272978;1276;22227;-77
2023/03/10 06:20:27;;;;;;;4.80;1.30;;;;;;;18.33;50.90;97163.06;272852;1285;22208;-82
2023/03/10 06:26:30;;;;;;;3.00;0.90;;;;;;;18.46;50.74;97157.20;272853;1281;22366;-78
2023/03/10 06:32:33;;;;;;;2.40;1.30;;;;;;;18.92;50.02;97150.35;272817;1279;22197;-78
2023/03/10 06:38:37;;;;;;;2.90;1.10;;;;;;;19.17;49.74;97148.75;272820;1280;22436;-78
2023/03/10 06:44:40;;;;;;;4.30;1.40;;;;;;;19.66;49.07;97143.88;272888;1281;22115;-78
2023/03/10 06:50:46;;;;;;;2.50;1.20;;;;;;;20.28;48.19;97137.41;272903;1280;22397;-77
2023/03/10 06:56:52;;;;;;;3.00;1.20;;;;;;;20.56;47.88;97128.27;272912;1279;22335;-77
2023/03/10 07:02:58;;;;;;;3.80;1.20;;;;;;;20.90;46.98;97121.95;272926;1279;22377;-90
2023/03/10 07:09:02;;;;;;;2.10;1.10;;;;;;;21.09;46.24;97118.05;272806;1280;22215;-80
2023/03/10 07:15:05;;;;;;;2.30;1.00;;;;;;;21.29;46.23;97109.75;272698;1280;22441;-77
2023/03/10 07:21:11;;;;;;;2.50;1.00;;;;;;;21.35;45.68;97101.80;272790;1280;22141;-77
2023/03/10 07:27:14;;;;;;;2.70;1.10;;;;;;;21.30;45.40;97092.82;272897;1279;22611;-76
2023/03/10 07:33:17;;;;;;;2.20;1.10;;;;;;;21.61;45.39;97083.54;272858;1280;22599;-77
2023/03/10 07:39:20;;;;;;;2.80;1.30;;;;;;;21.62;45.02;97074.91;272738;1280;23300;-77
2023/03/10 07:45:24;;;;;;;2.60;1.00;;;;;;;21.62;45.09;97067.25;272863;1280;22384;-77
2023/03/10 07:51:27;;;;;;;1.80;0.70;;;;;;;21.93;44.94;97062.95;272617;1280;151697;-76
2023/03/10 07:57:30;;;;;;;2.20;0.60;;;;;;;21.87;44.08;97057.55;272852;1280;22325;-77
2023/03/10 08:03:33;;;;;;;2.90;0.80;;;;;;;21.94;43.59;97055.61;272759;1280;22233;-77
2023/03/10 08:09:37;;;;;;;2.30;0.50;;;;;;;22.60;42.83;97046.71;272741;1280;22376;-77
2023/03/10 08:15:41;;;;;;;3.60;0.60;;;;;;;23.19;42.15;97034.77;272752;1280;22345;-77
2023/03/10 08:21:44;;;;;;;1.80;0.60;;;;;;;23.53;41.16;97024.10;272752;1280;22137;-77
2023/03/10 08:27:48;;;;;;;1.60;0.60;;;;;;;23.87;40.63;97023.38;273038;1280;22212;-78
2023/03/10 08:33:55;;;;;;;1.20;0.60;;;;;;;23.90;39.92;97018.00;272971;1279;22283;-76
2023/03/10 08:39:58;;;;;;;;;;;;;;;23.97;39.14;97010.80;272966;1280;23209;-76
2023/03/10 08:46:01;;;;;;;2.00;0.60;;;;;;;24.74;38.39;97005.72;273099;1285;22238;-76
2023/03/10 08:52:04;;;;;;;1.10;0.60;;;;;;;24.70;38.28;96999.46;273058;1279;22454;-77
2023/03/10 08:58:07;;;;;;;1.50;0.60;;;;;;;24.85;38.48;96997.27;273032;1278;22393;-76
2023/03/10 09:04:11;;;;;;;2.00;0.70;;;;;;;25.23;38.16;96995.36;273083;1278;22154;-75
2023/03/10 09:10:13;;;;;;;1.60;0.60;;;;;;;25.55;37.35;96993.14;272969;1280;22359;-77
2023/03/10 09:16:17;;;;;;;1.50;0.50;;;;;;;25.63;37.22;96996.42;273064;1285;22919;-77
2023/03/10 09:22:20;;;;;;;2.10;0.60;;;;;;;26.12;36.69;96996.91;273048;1284;23077;-77
2023/03/10 09:28:23;;;;;;;1.90;0.60;;;;;;;26.42;36.91;96991.79;273036;1282;22417;-78
2023/03/10 09:34:26;;;;;;;2.00;0.60;;;;;;;26.38;37.09;96989.19;273014;1283;22099;-78
2023/03/10 09:40:31;;;;;;;1.40;0.70;;;;;;;26.99;36.59;96980.70;272930;1278;22202;-77
2023/03/10 09:46:39;;;;;;;1.90;0.60;;;;;;;27.44;36.37;96977.70;272928;1285;22415;-77
2023/03/10 09:53:06;;;;;;;1.50;0.70;;;;;;;27.20;36.24;96970.41;273036;1283;22396;-80
2023/03/10 09:59:20;;;;;;;2.00;0.90;;;;;;;27.70;36.15;96966.38;272867;1281;22968;-79
2023/03/10 10:05:26;;;;;;;3.10;0.80;;;;;;;27.53;35.70;96958.23;272968;1284;22364;-78
2023/03/10 10:11:29;;;;;;;1.10;0.70;;;;;;;27.78;35.61;96948.73;272926;1280;23628;-78
2023/03/10 10:18:00;;;;;;;2.10;0.80;;;;;;;27.34;36.24;96941.91;272914;1280;22102;-79
2023/03/10 10:24:20;;;;;;;1.30;0.80;;;;;;;27.28;36.20;96937.27;273020;1281;22739;-79
2023/03/10 10:30:27;;;;;;;1.20;0.70;;;;;;;27.43;36.07;96928.27;273099;1280;23074;-78
2023/03/10 10:36:38;;;;;;;2.30;0.90;;;;;;;27.62;35.69;96927.30;272958;1280;22158;-79
2023/03/10 10:42:51;;;;;;;2.20;1.00;;;;;;;27.52;35.85;96924.38;272996;1285;22219;-79
2023/03/10 10:49:18;;;;;;;1.50;0.70;;;;;;;28.02;35.80;96912.33;273013;1280;22876;-79
2023/03/10 10:55:33;;;;;;;1.90;0.90;;;;;;;27.88;35.60;96905.73;273050;1280;23263;-79
2023/03/10 11:01:54;;;;;;;2.90;0.90;;;;;;;27.71;35.54;96900.10;273019;1285;22376;-79
2023/03/10 11:08:17;;;;;;;1.80;0.80;;;;;;;27.85;35.43;96888.86;273045;1281;23073;-78
2023/03/10 11:14:39;;;;;;;3.50;1.00;;;;;;;27.77;35.29;96878.94;273087;1280;22283;-79
2023/03/10 11:20:50;;;;;;;2.10;0.70;;;;;;;27.84;35.16;96873.01;273098;1284;22633;-79
2023/03/10 11:26:58;;;;;;;3.00;0.90;;;;;;;27.64;35.71;96862.09;273014;1280;22503;-79
2023/03/10 11:33:29;;;;;;;1.80;0.90;;;;;;;27.11;35.89;96855.55;272985;1285;22436;-79
2023/03/10 11:39:37;;;;;;;1.70;0.80;;;;;;;27.31;35.46;96854.73;273122;1278;22225;-79
2023/03/10 11:45:47;;;;;;;2.40;1.00;;;;;;;27.27;35.69;96846.23;273092;1280;22826;-78
2023/03/10 11:51:55;;;;;;;3.10;1.00;;;;;;;27.00;36.07;96843.66;273110;1281;22357;-78
2023/03/10 11:57:59;;;;;;;1.40;0.70;;;;;;;27.14;35.72;96841.45;272901;1280;23089;-78
2023/03/10 12:04:16;;;;;;;2.40;0.90;;;;;;;27.41;35.16;96834.55;273071;1284;22244;-79
2023/03/10 12:10:20;;;;;;;2.40;0.90;;;;;;;27.36;35.40;96832.66;272955;1278;22570;-79
2023/03/10 12:16:30;;;;;;;3.50;0.90;;;;;;;27.28;35.18;96826.93;273013;1282;22363;-79
2023/03/10 12:22:39;;;;;;;2.80;1.00;;;;;;;27.39;34.90;96827.39;273015;1284;22471;-79
2023/03/10 12:28:42;;;;;;;1.90;0.90;;;;;;;27.09;35.33;96816.64;273007;1280;22363;-79
2023/03/10 12:34:45;;;;;;;1.60;0.90;;;;;;;27.23;35.33;96808.98;273127;1284;22381;-78
2023/03/10 12:40:50;;;;;;;2.10;1.10;;;;;;;27.17;35.22;96804.89;273010;1281;22172;-79
2023/03/10 12:47:17;;;;;;;3.00;0.90;;;;;;;27.19;35.24;96803.54;272963;1285;22326;-79
2023/03/10 12:53:41;;;;;;;3.80;1.10;;;;;;;27.23;35.46;96799.67;272999;1281;22934;-79
2023/03/10 13:00:23;;;;;;;1.40;0.80;;;;;;;26.70;35.83;96802.60;273105;1280;22783;-79
2023/03/10 13:06:34;;;;;;;2.10;1.00;;;;;;;26.83;35.74;96810.09;273051;1285;22401;-79
2023/03/10 13:12:46;;;;;;;4.20;1.10;;;;;;;26.93;35.77;96801.28;272965;1281;22120;-79
2023/03/10 13:18:52;;;;;;;2.60;0.80;;;;;;;26.83;35.61;96807.58;273058;1278;22380;-79
2023/03/10 13:25:00;;;;;;;2.40;0.70;;;;;;;26.82;35.79;96805.06;273105;1282;22245;-78
2023/03/10 13:31:15;;;;;;;4.00;1.00;;;;;;;26.66;35.53;96807.80;273117;1278;22151;-79
2023/03/10 13:37:19;;;;;;;2.10;1.00;;;;;;;26.46;35.72;96811.64;273071;1278;22844;-75
2023/03/10 13:43:35;;;;;;;3.50;1.30;;;;;;;26.16;36.01;96818.11;273099;1285;22390;-75
2023/03/10 13:49:38;;;;;;;3.20;0.90;;;;;;;26.58;35.79;96815.91;273054;1280;22370;-75
2023/03/10 13:55:41;;;;;;;4.00;1.00;;;;;;;27.09;35.33;96809.63;273019;1277;22406;-77
2023/03/10 14:01:49;;;;;;;2.80;1.10;;;;;;;27.02;35.46;96809.10;273073;1285;22418;-77
2023/03/10 14:08:02;;;;;;;1.30;0.80;;;;;;;27.34;35.05;96803.59;273052;1285;23183;-76
2023/03/10 14:14:07;;;;;;;2.90;0.90;;;;;;;27.52;34.99;96798.81;273112;1285;22418;-76
2023/03/10 14:20:12;;;;;;;4.20;1.50;;;;;;;27.40;34.88;96790.97;272984;1285;22116;-76
2023/03/10 14:26:17;;;;;;;4.90;1.20;;;;;;;27.72;34.50;96782.05;272948;1286;22124;-76
2023/03/10 14:32:21;;;;;;;2.50;1.00;;;;;;;27.61;34.86;96774.27;272921;1286;23161;-77
2023/03/10 14:38:24;;;;;;;2.20;0.90;;;;;;;27.55;34.82;96762.15;272752;1283;22224;-76
2023/03/10 14:44:28;;;;;;;3.60;1.00;;;;;;;27.38;34.69;96760.00;272752;1283;22107;-76
2023/03/10 14:50:32;;;;;;;2.40;1.10;;;;;;;27.46;34.53;96755.00;272791;1279;22121;-78
2023/03/10 14:56:35;;;;;;;3.30;0.90;;;;;;;27.38;34.65;96750.30;272831;1283;22413;-78
2023/03/10 15:02:39;;;;;;;2.40;1.20;;;;;;;27.45;34.57;96746.33;272833;1283;22140;-78
2023/03/10 15:08:43;;;;;;;4.80;1.10;;;;;;;27.61;34.62;96740.30;272776;1282;22203;-77
2023/03/10 15:14:51;;;;;;;4.00;1.50;;;;;;;27.65;34.53;96738.08;272833;1280;22141;-77
2023/03/10 15:20:57;;;;;;;4.10;1.80;;;;;;;27.72;34.43;96735.76;272767;1280;22178;-77
2023/03/10 15:27:03;;;;;;;5.40;2.00;;;;;;;27.51;34.53;96732.29;273012;1279;22240;-78
2023/03/10 15:33:06;;;;;;;3.40;1.60;;;;;;;27.43;34.77;96727.66;273085;1279;22379;-76
2023/03/10 15:39:09;;;;;;;5.20;1.70;;;;;;;27.23;34.92;96724.89;273066;1279;22985;-76
2023/03/10 15:45:20;;;;;;;3.90;1.50;;;;;;;26.92;35.43;96720.31;273027;1284;22179;-80
2023/03/10 15:51:24;;;;;;;5.60;2.00;;;;;;;26.82;35.65;96720.09;273027;1278;22397;-80
2023/03/10 15:57:26;;;;;;;5.30;1.60;;;;;;;26.79;35.70;96718.28;273099;1279;22233;-81
2023/03/10 16:03:29;;;;;;;3.80;1.50;;;;;;;26.64;35.90;96718.45;273117;1285;22349;-81
2023/03/10 16:09:33;;;;;;;4.60;1.80;;;;;;;26.17;36.47;96721.43;273096;1283;22475;-82
2023/03/10 16:15:37;;;;;;;5.20;1.60;;;;;;;25.96;37.00;96721.31;272901;1281;23085;-81
2023/03/10 16:21:43;;;;;;;5.60;1.60;;;;;;;25.88;37.06;96723.50;273099;1280;22110;-83
2023/03/10 16:27:47;;;;;;;6.10;1.70;;;;;;;25.63;37.41;96727.13;273102;1285;22284;-82
2023/03/10 16:33:50;;;;;;;6.80;1.70;;;;;;;25.36;37.95;96730.38;273117;1278;22510;-79
2023/03/10 16:39:54;;;;;;;3.50;1.60;;;;;;;25.18;38.32;96736.42;273010;1285;22178;-80
2023/03/10 16:46:05;;;;;;;4.80;1.60;;;;;;;25.20;38.39;96733.59;272919;1280;22284;-82
2023/03/10 16:52:09;;;;;;;4.70;2.10;;;;;;;25.17;38.35;96740.50;272868;1280;22427;-79
2023/03/10 16:58:12;;;;;;;6.00;1.80;;;;;;;25.15;38.54;96747.01;272912;1280;22368;-78
2023/03/10 17:04:16;;;;;;;4.50;1.90;;;;;;;25.26;38.50;96746.59;272909;1279;22242;-80
2023/03/10 17:10:20;;;;;;;5.80;2.50;;;;;;;25.28;38.58;96746.77;272977;1279;22090;-78
2023/03/10 17:16:27;;;;;;;8.10;3.00;;;;;;;24.94;39.08;96760.20;272973;1280;22356;-78
2023/03/10 17:22:30;;;;;;;;;;;;;;;24.12;41.22;96770.83;272932;1283;22484;-77
2023/03/10 17:28:33;;;;;;;4.60;2.30;;;;;;;23.29;43.55;96785.27;272885;1282;22224;-77
2023/03/10 17:34:36;;;;;;;3.50;1.30;;;;;;;23.10;44.49;96794.69;272858;1281;22944;-76
2023/03/10 17:40:41;;;;;;;3.50;1.00;;;;;;;23.03;45.26;96789.91;272946;1280;22613;-76
2023/03/10 17:46:44;;;;;;;1.20;0.70;;;;;;;23.00;45.25;96780.79;273075;1280;22800;-77
2023/03/10 17:52:48;;;;;;;1.50;0.70;;;;;;;22.89;44.97;96785.16;272913;1284;22950;-78
2023/03/10 17:58:52;;;;;;;1.30;0.60;;;;;;;22.59;45.53;96797.27;273020;1282;22153;-83
2023/03/10 18:04:56;;;;;;;1.20;0.80;;;;;;;22.84;45.56;96807.15;273036;1285;22318;-75
2023/03/10 18:11:01;;;;;;;3.50;1.50;;;;;;;23.10;46.08;96817.02;273061;1285;22099;-76
2023/03/10 18:17:04;;;;;;;3.50;2.10;;;;;;;23.03;47.02;96818.02;272996;1285;23096;-81
2023/03/10 18:23:07;;;;;;;3.50;1.70;;;;;;;23.00;48.36;96817.19;272970;1282;22561;-83
2023/03/10 18:29:12;;;;;;;3.80;1.90;;;;;;;22.95;49.00;96814.91;272917;1285;22821;-80
2023/03/10 18:35:16;;;;;;;3.30;1.80;;;;;;;22.76;49.46;96791.23;273044;1285;22442;-76
2023/03/10 18:41:22;;;;;;;;;;;;;;;22.48;49.97;96757.42;273032;1285;23202;-76
2023/03/10 18:47:26;;;;;;;3.90;1.80;;;;;;;22.43;49.93;96740.85;273015;1285;22148;-75
2023/03/10 18:53:29;;;;;;;3.40;1.70;;;;;;;22.36;50.09;96731.98;273035;1285;22095;-75
2023/03/10 18:59:32;;;;;;;5.40;2.10;;;;;;;22.37;50.29;96738.63;273084;1285;22282;-76
2023/03/10 19:05:36;;;;;;;3.90;1.80;;;;;;;22.05;50.79;96739.17;272999;1285;22347;-75
2023/03/10 19:11:41;;;;;;;5.40;1.90;;;;;;;22.05;50.68;96727.70;273072;1285;22885;-76
2023/03/10 19:17:44;;;;;;;3.50;1.90;;;;;;;22.24;50.23;96711.60;272985;1285;22159;-75
2023/03/10 19:23:51;;;;;;;8.40;4.40;;;;;;;22.13;50.06;96702.49;272946;1285;22349;-75
2023/03/10 19:29:57;;;;;;;6.40;3.20;;;;;;;21.99;50.51;96711.73;272998;1280;22221;-75
2023/03/10 19:36:01;;;;;;;6.70;3.10;;;;;;;21.94;50.48;96685.99;272857;1285;22774;-75
2023/03/10 19:42:05;;;;;;;4.80;2.60;;;;;;;21.53;50.57;96675.09;273009;1285;22449;-76
2023/03/10 19:48:08;;;;;;;5.00;2.40;;;;;;;21.47;50.67;96664.75;272806;1280;98307;-75
2023/03/10 19:54:14;;;;;;;4.30;2.60;;;;;;;21.78;49.95;96669.38;272955;1285;22025;-79
2023/03/10 20:00:26;;;;;;;4.90;2.80;;;;;;;21.95;49.46;96689.92;272931;1285;22350;-80
2023/03/10 20:06:29;;;;;;;7.10;2.90;;;;;;;21.85;49.57;96688.95;273079;1279;22250;-81
2023/03/10 20:12:32;;;;;;;5.40;2.70;;;;;;;21.92;49.41;96684.17;273008;1285;22470;-82
2023/03/10 20:18:38;;;;;;;4.00;2.60;;;;;;;21.73;49.83;96686.03;272932;1285;22514;-80
2023/03/10 20:24:42;;;;;;;13.30;7.80;;;;;;;21.60;50.15;96673.41;273025;1285;22180;-85
2023/03/10 20:30:46;;;;;;;7.20;3.80;;;;;;;21.71;49.74;96668.25;272963;1285;22320;-80
2023/03/10 20:36:49;;;;;;;5.20;3.10;;;;;;;21.84;49.42;96669.19;273067;1285;22412;-79
2023/03/10 20:42:58;;;;;;;5.40;2.70;;;;;;;21.74;49.76;96666.42;273066;1285;22593;-88
2023/03/10 20:49:01;;;;;;;5.20;3.00;;;;;;;21.68;50.21;96661.55;272891;1285;22783;-78
2023/03/10 20:55:06;;;;;;;5.20;2.90;;;;;;;21.56;50.21;96655.84;273046;1279;22110;-78
2023/03/10 21:01:18;;;;;;;5.10;3.10;;;;;;;21.31;50.56;96652.73;273028;1285;22190;-77
2023/03/10 21:07:21;;;;;;;6.00;3.30;;;;;;;21.07;50.90;96637.20;272876;1278;22360;-77
2023/03/10 21:13:24;;;;;;;4.10;2.60;;;;;;;20.93;51.17;96631.15;273039;1280;22091;-77
2023/03/10 21:19:27;;;;;;;6.10;2.60;;;;;;;20.67;51.67;96622.92;272985;1285;22090;-80
2023/03/10 21:25:30;;;;;;;4.80;2.70;;;;;;;20.72;51.77;96625.23;273046;1285;22426;-79
2023/03/10 21:31:33;;;;;;;6.30;3.30;;;;;;;20.74;51.28;96615.60;273027;1285;22148;-79
2023/03/10 21:37:36;;;;;;;8.30;4.30;;;;;;;20.68;51.24;96603.38;273097;1285;22420;-79
2023/03/10 21:43:42;;;;;;;13.30;6.10;;;;;;;20.74;51.30;96594.38;273004;1285;22814;-79
2023/03/10 21:49:45;;;;;;;6.20;3.60;;;;;;;20.81;50.72;96591.49;273111;1285;23083;-79
2023/03/10 21:55:48;;;;;;;7.00;3.80;;;;;;;20.59;50.90;96581.91;272974;1285;22960;-79
2023/03/10 22:01:51;;;;;;;7.30;3.50;;;;;;;20.45;50.99;96569.59;273142;1285;22202;-79
2023/03/10 22:07:55;;;;;;;5.40;3.50;;;;;;;20.53;51.19;96566.58;273015;1285;22820;-79
2023/03/10 22:13:58;;;;;;;6.90;4.00;;;;;;;20.57;51.24;96563.69;273013;1279;22448;-80
2023/03/10 22:20:01;;;;;;;5.70;3.30;;;;;;;20.81;50.65;96562.23;272987;1278;22214;-77
2023/03/10 22:26:04;;;;;;;7.30;4.60;;;;;;;20.99;50.44;96556.89;273091;1279;22215;-81
2023/03/10 22:32:07;;;;;;;9.70;5.40;;;;;;;21.21;50.32;96554.73;273128;1285;22174;-81
2023/03/10 22:38:12;;;;;;;8.40;4.60;;;;;;;20.99;50.87;96550.49;273207;1285;22265;-78
2023/03/10 22:44:17;;;;;;;7.60;4.90;;;;;;;20.78;51.29;96546.23;273075;1284;22235;-77
2023/03/10 22:50:23;;;;;;;8.70;5.00;;;;;;;20.78;51.25;96533.08;273079;1280;23077;-77
2023/03/10 22:56:26;;;;;;;7.00;4.10;;;;;;;20.86;51.08;96529.48;272935;1280;23265;-76
2023/03/10 23:02:29;;;;;;;6.50;4.10;;;;;;;20.61;51.59;96528.83;273026;1280;22357;-76
2023/03/10 23:08:36;;;;;;;5.60;3.70;;;;;;;20.57;51.80;96529.44;273064;1280;22317;-76
2023/03/10 23:14:39;;;;;;;6.80;4.30;;;;;;;20.49;51.97;96522.04;273012;1278;22989;-76
2023/03/10 23:20:46;;;;;;;14.10;7.60;;;;;;;20.40;51.94;96518.59;272942;1278;22278;-76
2023/03/10 23:26:49;;;;;;;8.60;5.10;;;;;;;20.30;52.18;96516.83;272978;1279;22312;-76
2023/03/10 23:32:52;;;;;;;9.60;5.00;;;;;;;20.28;52.15;96523.39;273043;1278;23020;-76
2023/03/10 23:38:55;;;;;;;8.60;5.20;;;;;;;20.25;52.04;96526.93;272836;1280;22341;-76
2023/03/10 23:44:58;;;;;;;8.20;4.40;;;;;;;20.15;52.12;96528.80;273004;1283;22318;-76
2023/03/10 23:51:01;;;;;;;5.70;3.40;;;;;;;19.71;52.37;96528.73;273061;1278;22365;-76
2023/03/10 23:57:04;;;;;;;4.80;2.40;;;;;;;19.91;50.94;96518.82;273077;1279;22940;-76
